Time;durP1;ratioP1;P1;durP2;ratioP2;P2;SDS_P1;SDS_P2;PMS_P1;PMS_P2;Temp;Humidity;BMP_temperature;BMP_pressure;BME280_temperature;BME280_humidity;BME280_pressure;Samples;Min_cycle;Max_cycle;Signal;HPM_P1;HPM_P2
2023/07/02 00:01:14;;;;;;;7.50;6.20;;;;;;;;;;5008371;28;20218;-66
2023/07/02 00:07:40;;;;;;;6.93;6.20;;;;;;;;;;5008099;28;20658;-66
2023/07/02 00:14:06;;;;;;;7.40;6.70;;;;;;;;;;5007845;28;20183;-66
2023/07/02 00:20:34;;;;;;;9.33;6.40;;;;;;;;;;5008186;28;20247;-67
2023/07/02 00:31:38;;;;;;;9.67;7.53;;;;;;;;;;4924075;28;20714;-67
2023/07/02 00:42:11;;;;;;;8.43;7.37;;;;;;;;;;4946572;28;20204;-69
2023/07/02 01:37:37;;;;;;;9.40;7.80;;;;;;;;;;4934025;29;20171;-66
2023/07/02 01:44:05;;;;;;;9.70;8.10;;;;;;;;;;4952237;29;20181;-65
2023/07/02 01:50:31;;;;;;;8.10;7.30;;;;;;;;;;4952470;29;20237;-66
2023/07/02 01:57:08;;;;;;;8.70;7.87;;;;;;;;;;4952881;29;20606;-66
2023/07/02 02:03:34;;;;;;;8.33;6.40;;;;;;;;;;4952815;29;20229;-66
2023/07/02 02:10:36;;;;;;;8.27;7.47;;;;;;;;;;4940811;29;20189;-66
2023/07/02 02:17:02;;;;;;;8.67;7.23;;;;;;;;;;4952073;29;21014;-66
2023/07/02 02:23:28;;;;;;;8.30;7.33;;;;;;;;;;4952041;29;20241;-66
2023/07/02 02:29:55;;;;;;;10.17;7.00;;;;;;;;;;4952460;29;20189;-66
2023/07/02 02:40:53;;;;;;;8.73;7.00;;;;;;;;;;4990536;28;20179;-65
2023/07/02 02:47:19;;;;;;;8.20;6.50;;;;;;;;;;4990814;28;20247;-66
2023/07/02 02:53:47;;;;;;;7.27;6.57;;;;;;;;;;4990196;28;20544;-65
2023/07/02 03:00:13;;;;;;;7.43;6.73;;;;;;;;;;4990586;28;20183;-66
2023/07/02 03:06:40;;;;;;;8.50;6.10;;;;;;;;;;4970615;28;20273;-66
2023/07/02 03:13:07;;;;;;;7.20;6.47;;;;;;;;;;4951145;29;20253;-65
2023/07/02 03:19:34;;;;;;;6.93;6.23;;;;;;;;;;4951234;29;20174;-66
2023/07/02 03:26:00;;;;;;;6.57;5.97;;;;;;;;;;4950860;29;20221;-66
2023/07/02 03:41:02;;;;;;;6.20;5.60;;;;;;;;;;4909832;29;20183;-66
2023/07/02 03:47:28;;;;;;;6.60;5.47;;;;;;;;;;4910081;29;20593;-66
2023/07/02 03:57:54;;;;;;;6.33;5.20;;;;;;;;;;4909750;29;20246;-66
2023/07/02 04:04:20;;;;;;;6.23;5.10;;;;;;;;;;4969635;28;20958;-66
2023/07/02 04:11:23;;;;;;;5.57;4.93;;;;;;;;;;4964163;28;20279;-66
2023/07/02 04:18:25;;;;;;;5.40;4.90;;;;;;;;;;4988533;28;20811;-66
2023/07/02 04:24:52;;;;;;;5.00;4.47;;;;;;;;;;4988949;28;20335;-66
2023/07/02 04:31:53;;;;;;;5.03;4.23;;;;;;;;;;4969249;28;20251;-66
2023/07/02 04:43:02;;;;;;;4.13;3.73;;;;;;;;;;4988398;28;20183;-65
2023/07/02 04:49:30;;;;;;;4.07;3.67;;;;;;;;;;4979575;28;20191;-67
2023/07/02 04:55:57;;;;;;;3.93;3.57;;;;;;;;;;4980160;28;20191;-67
2023/07/02 05:02:25;;;;;;;4.33;3.47;;;;;;;;;;4986730;28;20268;-67
2023/07/02 05:17:44;;;;;;;2.40;2.20;;;;;;;;;;4867879;29;20255;-68
2023/07/02 05:28:33;;;;;;;2.17;1.97;;;;;;;;;;4865702;29;20234;-66
2023/07/02 05:39:30;;;;;;;1.90;1.80;;;;;;;;;;4865696;29;20231;-67
2023/07/02 05:50:26;;;;;;;1.67;1.57;;;;;;;;;;4878635;29;20229;-66
2023/07/02 06:12:44;;;;;;;3.23;2.10;;;;;;;;;;4944507;29;20656;-67
2023/07/02 06:23:16;;;;;;;2.03;1.90;;;;;;;;;;4931614;29;20201;-69
2023/07/02 06:29:43;;;;;;;2.23;2.03;;;;;;;;;;4969953;28;20183;-68
2023/07/02 06:36:10;;;;;;;2.03;1.90;;;;;;;;;;4969947;28;20183;-67
2023/07/02 07:16:27;;;;;;;5.30;2.03;;;;;;;;;;4883353;29;20224;-68
2023/07/02 07:23:29;;;;;;;3.63;2.03;;;;;;;;;;4927230;29;20797;-68
2023/07/02 07:30:31;;;;;;;3.70;2.20;;;;;;;;;;4945289;28;20204;-67
2023/07/02 07:36:58;;;;;;;5.60;2.30;;;;;;;;;;4944508;28;20667;-67
2023/07/02 08:47:56;;;;;;;5.67;2.83;;;;;;;;;;4798637;29;20202;-67
2023/07/02 08:58:36;;;;;;;5.37;2.30;;;;;;;;;;4865533;29;20642;-67
2023/07/02 09:09:03;;;;;;;5.10;2.03;;;;;;;;;;4899646;29;20242;-67
2023/07/02 09:15:34;;;;;;;5.43;1.80;;;;;;;;;;4947391;29;20193;-66
2023/07/02 09:22:00;;;;;;;4.23;1.83;;;;;;;;;;4966485;28;21287;-67
2023/07/02 09:28:26;;;;;;;4.80;2.20;;;;;;;;;;5007753;28;20247;-68
2023/07/02 09:34:53;;;;;;;3.13;2.03;;;;;;;;;;5007270;28;20183;-68
2023/07/02 09:45:59;;;;;;;6.30;2.53;;;;;;;;;;4946558;29;20221;-67
2023/07/02 09:52:18;;;;;;;6.87;2.33;;;;;;;;;;4946703;28;20256;-67
2023/07/02 09:58:55;;;;;;;5.53;2.63;;;;;;;;;;4950030;29;20186;-67
2023/07/02 10:05:31;;;;;;;4.13;1.90;;;;;;;;;;4949707;29;20638;-67
2023/07/02 10:11:57;;;;;;;5.10;2.50;;;;;;;;;;4949959;29;20723;-67
2023/07/02 10:18:25;;;;;;;6.10;2.67;;;;;;;;;;5010475;28;20206;-66
2023/07/02 10:25:03;;;;;;;5.23;2.43;;;;;;;;;;5010311;28;20182;-67
2023/07/02 10:31:30;;;;;;;5.03;2.50;;;;;;;;;;5010639;28;20654;-66
2023/07/02 10:38:07;;;;;;;7.10;2.40;;;;;;;;;;5010067;28;20291;-66
2023/07/02 10:49:08;;;;;;;14.77;2.50;;;;;;;;;;5010067;28;20315;-67
2023/07/02 10:55:34;;;;;;;4.10;2.40;;;;;;;;;;5009868;28;20175;-68
2023/07/02 11:02:03;;;;;;;7.03;2.50;;;;;;;;;;5009757;28;20580;-67
2023/07/02 11:08:37;;;;;;;8.00;2.80;;;;;;;;;;5009778;28;20190;-67
2023/07/02 11:15:08;;;;;;;10.13;2.63;;;;;;;;;;5009282;28;20639;-68
2023/07/02 11:21:34;;;;;;;5.33;2.70;;;;;;;;;;5009669;28;20687;-70
2023/07/02 11:28:02;;;;;;;5.70;2.60;;;;;;;;;;5009041;28;20908;-69
2023/07/02 11:38:50;;;;;;;8.03;3.07;;;;;;;;;;5009319;28;20214;-69
2023/07/02 11:49:09;;;;;;;6.57;2.33;;;;;;;;;;5009007;28;20182;-68
2023/07/02 11:55:36;;;;;;;7.87;2.83;;;;;;;;;;5009271;28;20630;-69
2023/07/02 12:02:02;;;;;;;6.80;3.30;;;;;;;;;;5008767;28;20673;-69
2023/07/02 12:08:28;;;;;;;8.23;2.97;;;;;;;;;;5008637;28;20198;-70
2023/07/02 12:15:02;;;;;;;8.27;3.50;;;;;;;;;;5008765;28;20194;-69
2023/07/02 12:21:29;;;;;;;7.03;3.07;;;;;;;;;;5008720;28;20159;-69
2023/07/02 12:27:55;;;;;;;11.07;3.73;;;;;;;;;;5008531;28;20215;-69
2023/07/02 12:34:21;;;;;;;11.70;3.80;;;;;;;;;;5007838;28;20250;-69
2023/07/02 12:49:24;;;;;;;11.50;3.47;;;;;;;;;;4927272;29;20201;-68
2023/07/02 12:55:50;;;;;;;10.50;3.20;;;;;;;;;;4928324;29;20194;-68
2023/07/02 13:10:14;;;;;;;6.30;2.70;;;;;;;;;;4995679;28;20245;-71
2023/07/02 13:16:41;;;;;;;5.37;2.93;;;;;;;;;;4997805;28;20186;-71
2023/07/02 13:23:09;;;;;;;6.00;2.90;;;;;;;;;;4995657;28;20183;-71
2023/07/02 13:29:35;;;;;;;6.67;2.70;;;;;;;;;;5010085;28;20708;-71
2023/07/02 13:36:01;;;;;;;8.83;3.33;;;;;;;;;;5010276;28;20238;-70
2023/07/02 13:42:27;;;;;;;6.27;3.50;;;;;;;;;;5003147;28;20186;-71
2023/07/02 13:54:08;;;;;;;7.13;3.77;;;;;;;;;;4918690;29;20198;-71
2023/07/02 14:05:15;;;;;;;11.57;4.63;;;;;;;;;;4929416;29;20260;-72
2023/07/02 14:11:40;;;;;;;6.33;3.60;;;;;;;;;;4971919;28;20273;-71
2023/07/02 14:18:07;;;;;;;8.30;3.77;;;;;;;;;;4972105;28;20707;-73
2023/07/02 14:24:33;;;;;;;6.57;3.27;;;;;;;;;;4971767;28;20592;-73
2023/07/02 14:31:01;;;;;;;9.57;4.00;;;;;;;;;;4971710;28;20207;-72
2023/07/02 14:37:27;;;;;;;7.87;3.60;;;;;;;;;;4971109;28;20164;-72
2023/07/02 14:43:57;;;;;;;6.73;3.87;;;;;;;;;;4971340;28;20180;-72
2023/07/02 14:54:54;;;;;;;8.93;4.03;;;;;;;;;;4990641;28;20179;-72
2023/07/02 15:01:20;;;;;;;7.30;3.10;;;;;;;;;;5009733;28;20218;-71
2023/07/02 15:07:48;;;;;;;4.47;2.83;;;;;;;;;;5009786;28;20242;-72
2023/07/02 15:14:51;;;;;;;7.90;3.40;;;;;;;;;;4987274;28;20280;-70
2023/07/02 15:21:53;;;;;;;6.93;3.77;;;;;;;;;;5009576;28;20191;-70
2023/07/02 15:28:20;;;;;;;8.67;3.60;;;;;;;;;;5009561;28;20222;-70
2023/07/02 15:35:22;;;;;;;6.53;3.57;;;;;;;;;;5008478;28;20179;-69
2023/07/02 15:42:00;;;;;;;9.43;3.97;;;;;;;;;;5009268;28;20705;-71
2023/07/02 15:48:26;;;;;;;6.83;4.07;;;;;;;;;;5009247;28;20252;-71
2023/07/02 15:54:52;;;;;;;7.90;3.30;;;;;;;;;;5009088;28;20556;-70
2023/07/02 16:01:20;;;;;;;6.83;3.10;;;;;;;;;;5008986;28;20245;-70
2023/07/02 16:08:48;;;;;;;7.27;3.03;;;;;;;;;;4909830;29;20308;-71
2023/07/02 16:15:14;;;;;;;7.73;2.93;;;;;;;;;;4929227;29;20736;-70
2023/07/02 16:21:40;;;;;;;7.00;2.70;;;;;;;;;;4928657;29;20210;-71
2023/07/02 16:28:05;;;;;;;8.20;3.00;;;;;;;;;;4928317;29;20249;-72
2023/07/02 16:34:43;;;;;;;6.07;2.70;;;;;;;;;;4986048;28;20259;-73
2023/07/02 16:41:12;;;;;;;6.00;2.53;;;;;;;;;;4988584;28;20227;-72
2023/07/02 16:47:39;;;;;;;5.77;2.20;;;;;;;;;;4988408;28;20311;-72
2023/07/02 17:02:22;;;;;;;8.37;2.20;;;;;;;;;;5015216;28;20182;-72
2023/07/02 17:08:48;;;;;;;6.03;1.83;;;;;;;;;;5000437;28;20193;-71
2023/07/02 17:15:25;;;;;;;8.80;2.20;;;;;;;;;;4998467;28;20186;-71
2023/07/02 17:22:02;;;;;;;7.10;2.20;;;;;;;;;;4969336;28;20232;-68
2023/07/02 17:28:30;;;;;;;6.97;2.20;;;;;;;;;;4976794;28;20294;-70
2023/07/02 17:34:57;;;;;;;7.47;2.30;;;;;;;;;;4983578;28;20199;-71
2023/07/02 17:41:35;;;;;;;11.00;2.53;;;;;;;;;;5003060;28;20188;-72
2023/07/02 17:48:03;;;;;;;4.80;2.20;;;;;;;;;;5002591;28;20218;-71
2023/07/02 18:03:07;;;;;;;8.00;2.00;;;;;;;;;;4915335;29;20996;-69
2023/07/02 18:20:42;;;;;;;8.93;2.30;;;;;;;;;;4894382;29;20189;-68
2023/07/02 18:27:08;;;;;;;6.87;2.53;;;;;;;;;;4928800;29;20273;-68
2023/07/02 18:33:36;;;;;;;8.17;2.50;;;;;;;;;;4990777;28;20558;-67
2023/07/02 18:40:47;;;;;;;6.80;2.33;;;;;;;;;;4892725;29;20187;-67
2023/07/02 18:51:11;;;;;;;6.27;2.30;;;;;;;;;;4911426;29;20202;-68
2023/07/02 19:01:49;;;;;;;8.07;2.30;;;;;;;;;;4949929;29;20209;-68
2023/07/02 19:08:17;;;;;;;7.17;2.20;;;;;;;;;;4951607;29;20261;-67
2023/07/02 19:14:46;;;;;;;6.77;2.30;;;;;;;;;;4958158;28;20744;-67
2023/07/02 19:21:17;;;;;;;9.37;2.57;;;;;;;;;;4959798;28;20688;-67
2023/07/02 19:27:44;;;;;;;9.33;1.87;;;;;;;;;;4967642;28;20217;-67
2023/07/02 19:38:48;;;;;;;8.70;1.90;;;;;;;;;;4928344;28;20280;-68
2023/07/02 19:49:07;;;;;;;5.30;1.77;;;;;;;;;;4928814;29;20668;-69
2023/07/02 20:04:21;;;;;;;4.27;1.73;;;;;;;;;;4966640;28;20185;-69
2023/07/02 20:10:48;;;;;;;7.23;1.70;;;;;;;;;;4963479;28;20392;-68
2023/07/02 20:21:14;;;;;;;7.37;2.10;;;;;;;;;;4967102;28;20224;-69
2023/07/02 20:28:23;;;;;;;4.47;2.00;;;;;;;;;;4988399;28;20228;-68
2023/07/02 20:34:49;;;;;;;7.60;2.63;;;;;;;;;;4988442;28;20176;-69
2023/07/02 20:41:17;;;;;;;5.53;2.00;;;;;;;;;;4988439;28;20219;-69
2023/07/02 20:56:39;;;;;;;10.43;2.80;;;;;;;;;;4940349;29;20228;-69
2023/07/02 21:07:19;;;;;;;7.70;2.30;;;;;;;;;;4946977;29;20217;-69
2023/07/02 21:13:46;;;;;;;7.40;2.73;;;;;;;;;;4927619;28;20303;-70
2023/07/02 21:20:13;;;;;;;4.20;2.10;;;;;;;;;;4968438;28;20628;-69
2023/07/02 21:26:40;;;;;;;6.07;2.30;;;;;;;;;;4949034;29;20256;-68
2023/07/02 21:33:06;;;;;;;5.97;2.23;;;;;;;;;;4949021;29;20180;-68
2023/07/02 21:40:15;;;;;;;5.93;2.30;;;;;;;;;;4950546;28;20558;-69
2023/07/02 21:46:43;;;;;;;9.43;2.27;;;;;;;;;;4968098;28;20587;-69
2023/07/02 21:53:09;;;;;;;9.17;2.27;;;;;;;;;;4972302;28;20175;-69
2023/07/02 21:59:35;;;;;;;5.80;2.10;;;;;;;;;;4971995;28;20189;-69
2023/07/02 22:14:18;;;;;;;5.07;2.33;;;;;;;;;;4991276;28;20176;-69
2023/07/02 22:20:45;;;;;;;5.07;2.27;;;;;;;;;;4990300;28;20175;-69
2023/07/02 22:27:13;;;;;;;6.20;2.20;;;;;;;;;;4991134;28;20387;-68
2023/07/02 22:33:38;;;;;;;6.20;2.63;;;;;;;;;;4991108;28;20716;-68
2023/07/02 22:40:10;;;;;;;4.93;2.27;;;;;;;;;;4990520;28;20743;-69
2023/07/02 22:46:36;;;;;;;5.33;2.43;;;;;;;;;;4990352;28;20298;-68
2023/07/02 22:53:03;;;;;;;7.07;2.30;;;;;;;;;;4990336;28;20976;-69
2023/07/02 23:12:17;;;;;;;6.60;2.40;;;;;;;;;;4888292;29;20202;-69
2023/07/02 23:18:43;;;;;;;5.33;2.40;;;;;;;;;;4891881;29;20243;-69
2023/07/02 23:29:56;;;;;;;7.40;2.63;;;;;;;;;;4909521;29;20713;-69
2023/07/02 23:36:22;;;;;;;7.37;2.60;;;;;;;;;;4910166;29;20175;-68
2023/07/02 23:42:49;;;;;;;9.70;2.87;;;;;;;;;;4969977;28;20757;-69
2023/07/02 23:56:50;;;;;;;8.17;2.87;;;;;;;;;;4969816;28;20181;-69
